Time;durP1;ratioP1;P1;durP2;ratioP2;P2;SDS_P1;SDS_P2;PMS_P1;PMS_P2;Temp;Humidity;BMP_temperature;BMP_pressure;BME280_temperature;BME280_humidity;BME280_pressure;Samples;Min_cycle;Max_cycle;Signal;HPM_P1;HPM_P2
2022/02/25 00:00:43;;;;;;;5.47;4.50;;;;;;;;;;5030487;28;20202;-78
2022/02/25 00:03:13;;;;;;;8.87;4.87;;;;;;;;;;5030796;28;20667;-78
2022/02/25 00:05:40;;;;;;;7.47;4.50;;;;;;;;;;5030722;28;20199;-78
2022/02/25 00:08:09;;;;;;;5.17;4.63;;;;;;;;;;5030186;28;20191;-77
2022/02/25 00:10:36;;;;;;;6.03;4.37;;;;;;;;;;5030130;28;20683;-78
2022/02/25 00:13:04;;;;;;;10.20;6.53;;;;;;;;;;5030246;28;20203;-77
2022/02/25 00:15:31;;;;;;;7.40;4.50;;;;;;;;;;5030022;28;20693;-77
2022/02/25 00:17:58;;;;;;;8.17;4.93;;;;;;;;;;5036421;28;20234;-76
2022/02/25 00:20:25;;;;;;;11.70;5.63;;;;;;;;;;5030245;28;20210;-77
2022/02/25 00:22:53;;;;;;;8.27;4.87;;;;;;;;;;5030259;28;20191;-77
2022/02/25 00:25:21;;;;;;;6.13;3.77;;;;;;;;;;5029636;28;20668;-77
2022/02/25 00:27:48;;;;;;;4.87;3.87;;;;;;;;;;5030077;28;20202;-76
2022/02/25 00:30:16;;;;;;;6.53;4.13;;;;;;;;;;5029666;28;20244;-77
2022/02/25 00:32:43;;;;;;;7.23;5.33;;;;;;;;;;5030048;28;20203;-77
2022/02/25 00:35:11;;;;;;;11.40;5.27;;;;;;;;;;5029677;28;20251;-77
2022/02/25 00:37:38;;;;;;;7.43;4.60;;;;;;;;;;5029657;28;20280;-77
2022/02/25 00:40:06;;;;;;;6.23;5.03;;;;;;;;;;5029496;28;20711;-77
2022/02/25 00:42:35;;;;;;;6.50;4.57;;;;;;;;;;5030143;28;20202;-77
2022/02/25 00:45:02;;;;;;;7.27;4.80;;;;;;;;;;5029395;28;20695;-77
2022/02/25 00:47:29;;;;;;;6.20;4.80;;;;;;;;;;5030080;28;20202;-77
2022/02/25 00:49:57;;;;;;;7.17;4.27;;;;;;;;;;5029520;28;20666;-77
2022/02/25 00:52:24;;;;;;;6.07;3.80;;;;;;;;;;5030074;28;20210;-77
2022/02/25 00:54:51;;;;;;;5.80;4.03;;;;;;;;;;5029175;28;20326;-77
2022/02/25 00:57:19;;;;;;;5.13;3.73;;;;;;;;;;5029631;28;20206;-77
2022/02/25 00:59:48;;;;;;;7.33;4.60;;;;;;;;;;5029377;28;20605;-77
2022/02/25 01:02:15;;;;;;;4.93;3.17;;;;;;;;;;5029990;28;20238;-78
2022/02/25 01:04:44;;;;;;;4.10;3.70;;;;;;;;;;5029729;28;20594;-78
2022/02/25 01:07:11;;;;;;;6.13;3.93;;;;;;;;;;5029919;28;20234;-78
2022/02/25 01:09:38;;;;;;;4.23;3.53;;;;;;;;;;5029464;28;20582;-77
2022/02/25 01:12:07;;;;;;;5.37;3.60;;;;;;;;;;5029302;28;20198;-77
2022/02/25 01:14:35;;;;;;;6.40;4.47;;;;;;;;;;5029751;28;20656;-77
2022/02/25 01:17:04;;;;;;;6.93;3.80;;;;;;;;;;5029476;28;20593;-77
2022/02/25 01:19:31;;;;;;;4.20;3.47;;;;;;;;;;5040382;28;20598;-77
2022/02/25 01:21:58;;;;;;;7.90;4.20;;;;;;;;;;5028985;28;20195;-76
2022/02/25 01:24:25;;;;;;;4.10;3.17;;;;;;;;;;5029175;28;20217;-78
2022/02/25 01:26:53;;;;;;;5.43;4.17;;;;;;;;;;5029545;28;20246;-77
2022/02/25 01:29:20;;;;;;;4.20;3.40;;;;;;;;;;5029291;28;20251;-77
2022/02/25 01:31:47;;;;;;;4.43;3.77;;;;;;;;;;5029059;28;20609;-77
2022/02/25 01:34:17;;;;;;;3.83;3.53;;;;;;;;;;5029141;28;20208;-76
2022/02/25 01:36:44;;;;;;;3.73;3.27;;;;;;;;;;5029081;28;20273;-77
2022/02/25 01:39:12;;;;;;;4.13;3.73;;;;;;;;;;5029356;28;20222;-78
2022/02/25 01:41:39;;;;;;;4.30;3.87;;;;;;;;;;5029301;28;20198;-77
2022/02/25 01:44:13;;;;;;;4.17;3.77;;;;;;;;;;5028577;28;20220;-77
2022/02/25 01:46:41;;;;;;;4.93;3.70;;;;;;;;;;5029315;28;20202;-77
2022/02/25 01:49:08;;;;;;;4.30;3.70;;;;;;;;;;5028856;28;20289;-77
2022/02/25 01:51:37;;;;;;;3.87;3.57;;;;;;;;;;5028786;28;20203;-77
2022/02/25 01:54:04;;;;;;;5.60;3.77;;;;;;;;;;5029114;28;20191;-77
2022/02/25 01:56:31;;;;;;;4.03;3.30;;;;;;;;;;5029127;28;20584;-77
2022/02/25 01:58:58;;;;;;;3.67;3.20;;;;;;;;;;5028560;28;20711;-77
2022/02/25 02:01:26;;;;;;;5.03;4.17;;;;;;;;;;5028757;28;20198;-77
2022/02/25 02:03:54;;;;;;;4.17;3.77;;;;;;;;;;5028473;28;20198;-77
2022/02/25 02:06:21;;;;;;;3.80;3.50;;;;;;;;;;5029043;28;20202;-77
2022/02/25 02:08:50;;;;;;;4.27;3.87;;;;;;;;;;5028918;28;20199;-77
2022/02/25 02:11:28;;;;;;;5.43;3.90;;;;;;;;;;5028681;28;20234;-77
2022/02/25 02:13:56;;;;;;;4.57;3.90;;;;;;;;;;5028288;28;20205;-77
2022/02/25 02:16:23;;;;;;;5.50;3.90;;;;;;;;;;5028749;28;20210;-78
2022/02/25 02:18:50;;;;;;;5.90;4.20;;;;;;;;;;5037353;28;20591;-78
2022/02/25 02:21:17;;;;;;;4.77;4.13;;;;;;;;;;5030431;28;20211;-78
2022/02/25 02:23:46;;;;;;;5.00;3.90;;;;;;;;;;5028355;28;20199;-78
2022/02/25 02:26:13;;;;;;;4.73;4.23;;;;;;;;;;5028736;28;20202;-77
2022/02/25 02:28:41;;;;;;;5.60;4.13;;;;;;;;;;5028437;28;20205;-78
2022/02/25 02:31:08;;;;;;;6.63;4.57;;;;;;;;;;5028209;28;20193;-77
2022/02/25 02:33:36;;;;;;;5.23;3.90;;;;;;;;;;5028387;28;20191;-77
2022/02/25 02:36:04;;;;;;;3.93;3.13;;;;;;;;;;5028162;28;20203;-78
2022/02/25 02:38:31;;;;;;;3.63;3.33;;;;;;;;;;5028562;28;20199;-77
2022/02/25 02:41:00;;;;;;;5.00;3.50;;;;;;;;;;5028523;28;20585;-77
2022/02/25 02:43:27;;;;;;;3.77;3.33;;;;;;;;;;5027945;28;20207;-78
2022/02/25 02:45:55;;;;;;;6.10;3.47;;;;;;;;;;5028533;28;20203;-78
2022/02/25 02:48:22;;;;;;;5.27;3.60;;;;;;;;;;5028299;28;20299;-78
2022/02/25 02:50:49;;;;;;;4.60;3.17;;;;;;;;;;5027987;28;20286;-77
2022/02/25 02:53:16;;;;;;;5.63;4.23;;;;;;;;;;5028555;28;20276;-77
2022/02/25 02:55:44;;;;;;;6.37;3.93;;;;;;;;;;5028443;28;20686;-77
2022/02/25 02:58:13;;;;;;;5.00;3.60;;;;;;;;;;5031842;28;20195;-78
2022/02/25 03:00:41;;;;;;;5.67;4.67;;;;;;;;;;5031238;28;20237;-78
2022/02/25 03:03:09;;;;;;;3.90;3.50;;;;;;;;;;5031776;28;20198;-78
2022/02/25 03:05:37;;;;;;;4.60;3.70;;;;;;;;;;5031687;28;20589;-78
2022/02/25 03:08:05;;;;;;;4.40;3.67;;;;;;;;;;5031437;28;20206;-78
2022/02/25 03:10:33;;;;;;;6.83;4.10;;;;;;;;;;5031607;28;20195;-79
2022/02/25 03:13:00;;;;;;;4.37;3.97;;;;;;;;;;5031955;28;20203;-77
2022/02/25 03:15:29;;;;;;;7.57;4.30;;;;;;;;;;5031189;28;20289;-78
2022/02/25 03:17:56;;;;;;;5.80;4.07;;;;;;;;;;5034114;28;20218;-78
2022/02/25 03:20:24;;;;;;;4.67;3.97;;;;;;;;;;5039732;28;20613;-78
2022/02/25 03:22:52;;;;;;;5.73;3.93;;;;;;;;;;5031301;28;20206;-78
2022/02/25 03:25:20;;;;;;;5.03;3.83;;;;;;;;;;5031283;28;20201;-78
2022/02/25 03:27:48;;;;;;;4.33;3.70;;;;;;;;;;5030780;28;20198;-78
2022/02/25 03:30:16;;;;;;;5.00;3.63;;;;;;;;;;5030697;28;20222;-78
2022/02/25 03:32:45;;;;;;;7.37;4.00;;;;;;;;;;5030857;28;20241;-78
2022/02/25 03:35:13;;;;;;;4.10;3.57;;;;;;;;;;5030836;28;20207;-78
2022/02/25 03:37:40;;;;;;;5.37;3.80;;;;;;;;;;5030914;28;20637;-78
2022/02/25 03:40:09;;;;;;;6.20;4.10;;;;;;;;;;5030793;28;20707;-78
2022/02/25 03:42:37;;;;;;;4.20;3.80;;;;;;;;;;5030829;28;20252;-78
2022/02/25 03:45:05;;;;;;;5.73;4.07;;;;;;;;;;5030405;28;20209;-78
2022/02/25 03:47:32;;;;;;;4.33;3.77;;;;;;;;;;5030658;28;20651;-78
2022/02/25 03:50:01;;;;;;;7.17;4.63;;;;;;;;;;5030607;28;20202;-79
2022/02/25 03:52:28;;;;;;;5.33;4.13;;;;;;;;;;5030620;28;20202;-78
2022/02/25 03:54:55;;;;;;;5.37;3.97;;;;;;;;;;5030494;28;20584;-78
2022/02/25 03:57:22;;;;;;;4.40;3.90;;;;;;;;;;5030404;28;20199;-78
2022/02/25 03:59:50;;;;;;;7.93;3.67;;;;;;;;;;5030388;28;20229;-78
2022/02/25 04:02:17;;;;;;;6.40;4.57;;;;;;;;;;5030722;28;20205;-79
2022/02/25 04:04:44;;;;;;;5.40;4.53;;;;;;;;;;5030003;28;20289;-78
2022/02/25 04:07:13;;;;;;;5.60;3.83;;;;;;;;;;5029918;28;20206;-78
2022/02/25 04:09:40;;;;;;;4.40;3.80;;;;;;;;;;5030558;28;20578;-78
2022/02/25 04:12:08;;;;;;;5.33;4.30;;;;;;;;;;5044102;28;20251;-78
2022/02/25 04:14:36;;;;;;;3.73;3.43;;;;;;;;;;5050000;28;20194;-78
2022/02/25 04:17:04;;;;;;;4.53;4.13;;;;;;;;;;5042660;28;20586;-78
2022/02/25 04:19:31;;;;;;;6.13;4.60;;;;;;;;;;5048533;28;20635;-78
2022/02/25 04:21:59;;;;;;;4.77;3.60;;;;;;;;;;5035612;27;20209;-78
2022/02/25 04:24:27;;;;;;;20.90;13.27;;;;;;;;;;5029584;28;20199;-78
2022/02/25 04:26:55;;;;;;;15.63;10.70;;;;;;;;;;5029066;28;20198;-79
2022/02/25 04:29:23;;;;;;;17.37;11.30;;;;;;;;;;5028450;28;20234;-78
2022/02/25 04:31:50;;;;;;;12.00;7.77;;;;;;;;;;5029014;28;20649;-78
2022/02/25 04:34:17;;;;;;;12.67;5.03;;;;;;;;;;5028829;28;20191;-78
2022/02/25 04:36:45;;;;;;;11.50;8.20;;;;;;;;;;5028865;28;20682;-78
2022/02/25 04:39:12;;;;;;;11.77;9.13;;;;;;;;;;5028772;28;20195;-77
2022/02/25 04:41:41;;;;;;;8.77;6.37;;;;;;;;;;5028835;28;20233;-78
2022/02/25 04:44:08;;;;;;;7.70;6.77;;;;;;;;;;5028825;28;20198;-77
2022/02/25 04:46:38;;;;;;;5.50;5.00;;;;;;;;;;5028810;28;20209;-78
2022/02/25 04:49:05;;;;;;;6.23;5.07;;;;;;;;;;5029046;28;20582;-78
2022/02/25 04:51:32;;;;;;;7.80;5.57;;;;;;;;;;5028431;28;20202;-78
2022/02/25 04:53:59;;;;;;;9.03;6.30;;;;;;;;;;5028554;28;20195;-78
2022/02/25 04:56:27;;;;;;;6.27;5.67;;;;;;;;;;5028149;28;20205;-78
2022/02/25 04:58:55;;;;;;;7.30;4.83;;;;;;;;;;5028844;28;20198;-79
2022/02/25 05:01:23;;;;;;;7.33;4.70;;;;;;;;;;5028262;28;20583;-78
2022/02/25 05:03:50;;;;;;;4.07;3.77;;;;;;;;;;5028390;28;20238;-78
2022/02/25 05:06:17;;;;;;;8.70;4.53;;;;;;;;;;5028325;28;20237;-78
2022/02/25 05:08:45;;;;;;;6.87;4.77;;;;;;;;;;5028436;28;20194;-78
2022/02/25 05:11:12;;;;;;;5.70;4.10;;;;;;;;;;5028513;28;20783;-78
2022/02/25 05:13:40;;;;;;;4.37;3.93;;;;;;;;;;5028332;28;20689;-78
2022/02/25 05:21:37;;;;;;;5.07;4.53;;;;;;;;;;5027805;28;20205;-78
2022/02/25 05:24:06;;;;;;;7.33;5.83;;;;;;;;;;5028147;28;20195;-78
2022/02/25 05:26:33;;;;;;;8.50;7.57;;;;;;;;;;5028111;28;20294;-78
2022/02/25 05:29:01;;;;;;;7.80;5.60;;;;;;;;;;5031545;28;20709;-78
2022/02/25 05:31:29;;;;;;;7.50;6.80;;;;;;;;;;5047961;28;20285;-78
2022/02/25 05:33:57;;;;;;;7.77;5.83;;;;;;;;;;5047255;28;20678;-79
2022/02/25 05:36:27;;;;;;;6.07;5.47;;;;;;;;;;5036165;28;20297;-78
2022/02/25 05:38:55;;;;;;;6.97;5.90;;;;;;;;;;5048087;28;20634;-78
2022/02/25 05:41:22;;;;;;;6.67;6.00;;;;;;;;;;5047700;28;20781;-78
2022/02/25 05:43:50;;;;;;;6.63;5.93;;;;;;;;;;5047807;28;20285;-79
2022/02/25 05:46:17;;;;;;;6.60;5.20;;;;;;;;;;5048454;28;20205;-79
2022/02/25 05:48:46;;;;;;;15.73;5.90;;;;;;;;;;5048862;28;20646;-78
2022/02/25 05:51:13;;;;;;;9.13;5.87;;;;;;;;;;5048920;28;20598;-79
2022/02/25 05:53:40;;;;;;;11.23;6.07;;;;;;;;;;5048718;28;20289;-78
2022/02/25 05:56:08;;;;;;;13.13;11.10;;;;;;;;;;5039352;28;20683;-78
2022/02/25 05:58:35;;;;;;;17.97;16.17;;;;;;;;;;5029192;28;20658;-79
2022/02/25 06:01:02;;;;;;;10.10;8.50;;;;;;;;;;5028347;28;20740;-79
2022/02/25 06:03:29;;;;;;;13.13;8.43;;;;;;;;;;5028786;28;20199;-79
2022/02/25 06:05:58;;;;;;;7.27;6.13;;;;;;;;;;5028852;28;20566;-79
2022/02/25 06:08:25;;;;;;;6.90;6.20;;;;;;;;;;5028525;28;20289;-79
2022/02/25 06:10:53;;;;;;;6.13;5.10;;;;;;;;;;5028465;28;20286;-79
2022/02/25 06:13:20;;;;;;;6.50;5.73;;;;;;;;;;5028732;28;20290;-79
2022/02/25 06:15:47;;;;;;;8.13;5.70;;;;;;;;;;5028437;28;20242;-79
2022/02/25 06:18:16;;;;;;;6.80;5.00;;;;;;;;;;5028332;28;20746;-79
2022/02/25 06:20:44;;;;;;;9.67;4.70;;;;;;;;;;5039271;28;20229;-79
2022/02/25 06:23:13;;;;;;;5.80;4.27;;;;;;;;;;5048804;28;20194;-80
2022/02/25 06:25:40;;;;;;;5.67;4.27;;;;;;;;;;5048044;28;20210;-80
2022/02/25 06:28:07;;;;;;;6.90;4.00;;;;;;;;;;5048352;28;20194;-80
2022/02/25 06:30:35;;;;;;;8.53;4.93;;;;;;;;;;5049030;28;20244;-80
2022/02/25 06:33:02;;;;;;;6.97;5.40;;;;;;;;;;5051932;28;20301;-80
2022/02/25 06:35:29;;;;;;;7.00;5.03;;;;;;;;;;5052579;28;20210;-80
2022/02/25 06:37:57;;;;;;;9.73;5.20;;;;;;;;;;5054825;28;20213;-80
2022/02/25 06:40:25;;;;;;;10.23;5.00;;;;;;;;;;5052199;28;20222;-80
2022/02/25 06:42:53;;;;;;;13.40;7.57;;;;;;;;;;5051935;28;20596;-80
2022/02/25 06:45:21;;;;;;;17.73;10.67;;;;;;;;;;5051572;28;20204;-80
2022/02/25 06:47:49;;;;;;;23.93;13.47;;;;;;;;;;5051953;28;20209;-79
2022/02/25 06:50:18;;;;;;;32.43;21.73;;;;;;;;;;5051501;28;20284;-79
2022/02/25 06:52:46;;;;;;;12.93;10.23;;;;;;;;;;5051873;28;20229;-79
2022/02/25 06:55:14;;;;;;;10.97;7.93;;;;;;;;;;5051189;28;20594;-80
2022/02/25 06:57:44;;;;;;;9.57;5.83;;;;;;;;;;5051435;28;20208;-79
2022/02/25 07:00:16;;;;;;;10.43;6.13;;;;;;;;;;5050843;28;20773;-79
2022/02/25 07:02:43;;;;;;;12.70;8.77;;;;;;;;;;5051679;28;20194;-80
2022/02/25 07:05:11;;;;;;;10.43;6.80;;;;;;;;;;5046280;28;20209;-80
2022/02/25 07:07:38;;;;;;;7.33;6.60;;;;;;;;;;5031722;28;20277;-79
2022/02/25 07:10:06;;;;;;;7.13;6.10;;;;;;;;;;5031417;28;20203;-80
2022/02/25 07:12:34;;;;;;;13.60;8.00;;;;;;;;;;5031399;28;20581;-79
2022/02/25 07:15:04;;;;;;;19.60;11.83;;;;;;;;;;5031165;28;20203;-79
2022/02/25 07:17:31;;;;;;;9.57;6.17;;;;;;;;;;5031267;28;20199;-79
2022/02/25 07:19:59;;;;;;;8.03;5.17;;;;;;;;;;5030700;28;20247;-79
2022/02/25 07:22:27;;;;;;;6.47;4.83;;;;;;;;;;5031106;28;20290;-79
2022/02/25 07:24:55;;;;;;;8.90;7.13;;;;;;;;;;5030977;28;20202;-79
2022/02/25 07:27:22;;;;;;;17.77;11.37;;;;;;;;;;5030920;28;20202;-79
2022/02/25 07:29:51;;;;;;;8.43;6.53;;;;;;;;;;5030756;28;20233;-79
2022/02/25 07:32:20;;;;;;;5.97;5.13;;;;;;;;;;5030916;28;20195;-80
2022/02/25 07:34:48;;;;;;;10.77;6.80;;;;;;;;;;5030802;28;20203;-80
2022/02/25 07:37:15;;;;;;;6.80;5.80;;;;;;;;;;5030615;28;20201;-79
2022/02/25 07:39:42;;;;;;;12.50;9.10;;;;;;;;;;5030711;28;20209;-80
2022/02/25 07:42:10;;;;;;;5.50;4.67;;;;;;;;;;5029915;28;20223;-80
2022/02/25 07:44:37;;;;;;;5.93;4.40;;;;;;;;;;5029595;28;20289;-79
2022/02/25 07:47:04;;;;;;;5.70;5.10;;;;;;;;;;5029355;28;20202;-79
2022/02/25 07:49:34;;;;;;;5.00;3.80;;;;;;;;;;5030631;28;20241;-79
2022/02/25 07:52:01;;;;;;;5.23;4.27;;;;;;;;;;5030669;28;20194;-79
2022/02/25 07:54:31;;;;;;;5.03;4.53;;;;;;;;;;5030536;28;20199;-80
2022/02/25 07:56:58;;;;;;;4.60;4.20;;;;;;;;;;5030344;28;20214;-79
2022/02/25 07:59:25;;;;;;;4.80;3.77;;;;;;;;;;5030678;28;20611;-79
2022/02/25 08:01:53;;;;;;;6.60;4.30;;;;;;;;;;5030425;28;20778;-79
2022/02/25 08:04:20;;;;;;;4.97;3.70;;;;;;;;;;5030628;28;20202;-79
2022/02/25 08:06:49;;;;;;;4.40;4.00;;;;;;;;;;5030534;28;20194;-79
2022/02/25 08:09:16;;;;;;;4.53;4.03;;;;;;;;;;5030503;28;20590;-79
2022/02/25 08:11:43;;;;;;;3.43;3.13;;;;;;;;;;5030735;28;20203;-79
2022/02/25 08:14:10;;;;;;;10.17;5.77;;;;;;;;;;5030516;28;20281;-79
2022/02/25 08:16:38;;;;;;;5.00;3.70;;;;;;;;;;5030376;28;20230;-80
2022/02/25 08:19:07;;;;;;;4.63;3.97;;;;;;;;;;5030179;28;20203;-79
2022/02/25 08:21:35;;;;;;;5.17;3.73;;;;;;;;;;5030144;28;20703;-79
2022/02/25 08:24:04;;;;;;;4.67;4.17;;;;;;;;;;5030301;28;20254;-80
2022/02/25 08:26:32;;;;;;;7.67;4.23;;;;;;;;;;5030161;28;20289;-80
2022/02/25 08:28:59;;;;;;;7.80;4.13;;;;;;;;;;5029836;28;20231;-80
2022/02/25 08:31:26;;;;;;;6.23;4.93;;;;;;;;;;5030054;28;20187;-80
2022/02/25 08:33:54;;;;;;;6.50;3.67;;;;;;;;;;5030276;28;20207;-80
2022/02/25 08:36:21;;;;;;;4.17;3.50;;;;;;;;;;5030298;28;20191;-80
2022/02/25 08:38:49;;;;;;;5.27;3.80;;;;;;;;;;5029637;28;20221;-80
2022/02/25 08:41:17;;;;;;;4.97;3.50;;;;;;;;;;5029742;28;20230;-80
2022/02/25 08:43:48;;;;;;;4.43;3.57;;;;;;;;;;5030138;28;20272;-80
2022/02/25 08:46:15;;;;;;;4.83;3.67;;;;;;;;;;5030003;28;20198;-80
2022/02/25 08:48:42;;;;;;;4.03;3.60;;;;;;;;;;5030202;28;20655;-80
2022/02/25 08:51:10;;;;;;;4.03;3.00;;;;;;;;;;5029656;28;20201;-80
2022/02/25 08:53:37;;;;;;;3.37;3.07;;;;;;;;;;5029483;28;20206;-80
2022/02/25 08:56:08;;;;;;;6.60;3.87;;;;;;;;;;5029576;28;20567;-80
2022/02/25 08:58:37;;;;;;;3.70;2.97;;;;;;;;;;5029718;28;20282;-80
2022/02/25 09:01:04;;;;;;;4.83;3.60;;;;;;;;;;5029699;28;20309;-80
2022/02/25 09:03:31;;;;;;;4.23;3.83;;;;;;;;;;5029340;28;20575;-80
2022/02/25 09:05:58;;;;;;;4.83;3.20;;;;;;;;;;5029357;28;20294;-80
2022/02/25 09:08:26;;;;;;;5.10;4.60;;;;;;;;;;5029544;28;20207;-80
2022/02/25 09:10:54;;;;;;;5.40;4.90;;;;;;;;;;5029301;28;20191;-80
2022/02/25 09:13:21;;;;;;;5.07;4.47;;;;;;;;;;5029541;28;20199;-81
2022/02/25 09:15:50;;;;;;;3.43;3.07;;;;;;;;;;5029041;28;20201;-81
2022/02/25 09:18:17;;;;;;;3.90;3.60;;;;;;;;;;5029410;28;20289;-80
2022/02/25 09:20:45;;;;;;;3.17;2.87;;;;;;;;;;5029134;28;20203;-81
2022/02/25 09:23:12;;;;;;;4.67;3.20;;;;;;;;;;5029271;28;20205;-80
2022/02/25 09:25:40;;;;;;;3.20;2.90;;;;;;;;;;5028702;28;20238;-81
2022/02/25 09:28:08;;;;;;;4.17;3.60;;;;;;;;;;5029110;28;20199;-81
2022/02/25 09:30:35;;;;;;;3.70;2.53;;;;;;;;;;5028893;28;20278;-81
2022/02/25 09:33:04;;;;;;;4.50;3.60;;;;;;;;;;5029140;28;20747;-81
2022/02/25 09:35:32;;;;;;;3.50;3.20;;;;;;;;;;5029004;28;20195;-81
2022/02/25 09:37:59;;;;;;;3.30;3.00;;;;;;;;;;5028908;28;20237;-81
2022/02/25 09:40:27;;;;;;;3.97;2.80;;;;;;;;;;5028793;28;20205;-80
2022/02/25 09:42:54;;;;;;;3.77;2.87;;;;;;;;;;5029019;28;20232;-80
2022/02/25 09:45:22;;;;;;;3.23;2.70;;;;;;;;;;5028878;28;20206;-80
2022/02/25 09:47:49;;;;;;;4.73;3.10;;;;;;;;;;5029121;28;20201;-80
2022/02/25 09:50:20;;;;;;;3.10;2.63;;;;;;;;;;5028829;28;20564;-80
2022/02/25 09:52:48;;;;;;;4.33;3.20;;;;;;;;;;5029038;28;20248;-80
2022/02/25 09:55:24;;;;;;;3.00;2.70;;;;;;;;;;5028521;28;20243;-80
2022/02/25 09:57:51;;;;;;;2.97;2.57;;;;;;;;;;5028974;28;20194;-80
2022/02/25 10:00:19;;;;;;;3.60;2.70;;;;;;;;;;5028770;28;20209;-80
2022/02/25 10:02:49;;;;;;;4.37;2.87;;;;;;;;;;5028858;28;20218;-80
2022/02/25 10:05:19;;;;;;;4.53;3.33;;;;;;;;;;5029000;28;20187;-80
2022/02/25 10:07:47;;;;;;;6.77;6.17;;;;;;;;;;5032991;28;20193;-80
2022/02/25 10:10:16;;;;;;;2.50;2.30;;;;;;;;;;5032298;28;20241;-80
2022/02/25 10:12:46;;;;;;;2.27;2.07;;;;;;;;;;5032079;28;20205;-80
2022/02/25 10:15:14;;;;;;;2.23;1.90;;;;;;;;;;5032083;28;20194;-80
2022/02/25 10:17:42;;;;;;;2.97;2.13;;;;;;;;;;5032457;28;20197;-80
2022/02/25 10:20:10;;;;;;;3.40;2.07;;;;;;;;;;5032090;28;20238;-80
2022/02/25 10:22:41;;;;;;;2.50;2.30;;;;;;;;;;5032042;28;20226;-80
2022/02/25 10:25:10;;;;;;;2.70;2.33;;;;;;;;;;5031857;28;20581;-80
2022/02/25 10:27:39;;;;;;;3.87;2.53;;;;;;;;;;5031962;28;20230;-80
2022/02/25 10:30:09;;;;;;;2.97;2.33;;;;;;;;;;5031891;28;20238;-80
2022/02/25 10:32:39;;;;;;;3.70;2.33;;;;;;;;;;5032043;28;20203;-80
2022/02/25 10:35:24;;;;;;;3.83;3.50;;;;;;;;;;5031820;28;20652;-80
2022/02/25 10:38:02;;;;;;;3.77;3.13;;;;;;;;;;5031951;28;20270;-80
2022/02/25 10:40:31;;;;;;;4.03;2.67;;;;;;;;;;5032021;28;20193;-80
2022/02/25 10:42:59;;;;;;;3.20;2.90;;;;;;;;;;5031812;28;20227;-80
2022/02/25 10:45:29;;;;;;;3.93;3.50;;;;;;;;;;5031745;28;20303;-80
2022/02/25 10:47:59;;;;;;;3.53;2.20;;;;;;;;;;5031703;28;20285;-80
2022/02/25 10:50:27;;;;;;;3.37;2.90;;;;;;;;;;5031850;28;20617;-80
2022/02/25 10:52:56;;;;;;;3.80;3.50;;;;;;;;;;5031441;28;20283;-80
2022/02/25 10:55:26;;;;;;;4.10;2.57;;;;;;;;;;5031810;28;20260;-80
2022/02/25 10:57:54;;;;;;;3.13;2.60;;;;;;;;;;5031625;28;20587;-80
2022/02/25 11:00:22;;;;;;;3.23;2.93;;;;;;;;;;5031298;28;20279;-80
2022/02/25 11:02:51;;;;;;;3.17;2.57;;;;;;;;;;5031636;28;20347;-80
2022/02/25 11:05:19;;;;;;;3.77;3.03;;;;;;;;;;5031355;28;20619;-80
2022/02/25 11:07:48;;;;;;;3.67;2.70;;;;;;;;;;5031446;28;20203;-80
2022/02/25 11:10:18;;;;;;;3.30;2.60;;;;;;;;;;5031192;28;20201;-80
2022/02/25 11:12:46;;;;;;;3.07;2.80;;;;;;;;;;5031692;28;20277;-80
2022/02/25 11:15:17;;;;;;;3.27;2.50;;;;;;;;;;5031253;28;20210;-80
2022/02/25 11:17:45;;;;;;;2.83;1.93;;;;;;;;;;5030152;28;20241;-80
2022/02/25 11:20:14;;;;;;;2.60;2.40;;;;;;;;;;5031018;28;20361;-80
2022/02/25 11:22:43;;;;;;;3.93;2.70;;;;;;;;;;5030909;28;20225;-80
2022/02/25 11:25:14;;;;;;;2.90;2.60;;;;;;;;;;5030942;28;20203;-81
2022/02/25 11:27:43;;;;;;;2.83;2.40;;;;;;;;;;5031436;28;20187;-81
2022/02/25 11:30:13;;;;;;;3.47;3.13;;;;;;;;;;5030790;28;20280;-80
2022/02/25 11:32:42;;;;;;;3.77;2.77;;;;;;;;;;5030777;28;20205;-80
2022/02/25 11:35:15;;;;;;;3.47;2.33;;;;;;;;;;5031041;28;20635;-80
2022/02/25 11:37:45;;;;;;;3.40;2.43;;;;;;;;;;5031038;28;20187;-80
2022/02/25 11:40:13;;;;;;;2.83;2.63;;;;;;;;;;5030604;28;20198;-80
2022/02/25 11:42:40;;;;;;;2.80;2.60;;;;;;;;;;5031152;28;20231;-80
2022/02/25 11:45:25;;;;;;;2.67;2.47;;;;;;;;;;5030612;28;20200;-80
2022/02/25 11:47:56;;;;;;;2.70;2.37;;;;;;;;;;5030854;28;20643;-80
2022/02/25 11:50:40;;;;;;;2.53;2.33;;;;;;;;;;5030409;28;20191;-80
2022/02/25 11:53:19;;;;;;;2.90;2.43;;;;;;;;;;5030767;28;20224;-80
2022/02/25 11:55:47;;;;;;;2.37;2.17;;;;;;;;;;5030492;28;20191;-80
2022/02/25 11:58:46;;;;;;;3.03;2.73;;;;;;;;;;5030692;28;20198;-80
2022/02/25 12:01:17;;;;;;;2.73;2.53;;;;;;;;;;5014977;28;20742;-80
2022/02/25 12:04:12;;;;;;;3.43;2.60;;;;;;;;;;5030579;28;20757;-80
2022/02/25 12:07:04;;;;;;;4.20;2.50;;;;;;;;;;4985279;28;20238;-80
2022/02/25 12:09:43;;;;;;;3.07;2.23;;;;;;;;;;5030390;28;20610;-80
2022/02/25 12:12:38;;;;;;;4.10;1.93;;;;;;;;;;5030625;28;20183;-80
2022/02/25 12:15:08;;;;;;;3.90;2.83;;;;;;;;;;5030599;28;20278;-80
2022/02/25 12:17:45;;;;;;;2.80;2.50;;;;;;;;;;5030746;28;20195;-80
2022/02/25 12:20:19;;;;;;;2.40;2.20;;;;;;;;;;5030126;28;20183;-80
2022/02/25 12:22:56;;;;;;;2.20;2.10;;;;;;;;;;5029982;28;20301;-80
2022/02/25 12:25:48;;;;;;;5.57;3.30;;;;;;;;;;5030189;28;20605;-80
2022/02/25 12:28:49;;;;;;;2.20;1.80;;;;;;;;;;5030194;28;20735;-80
2022/02/25 12:31:18;;;;;;;2.33;2.13;;;;;;;;;;5029994;28;20194;-80
2022/02/25 12:33:59;;;;;;;2.20;2.03;;;;;;;;;;5029981;28;20293;-80
2022/02/25 12:36:46;;;;;;;2.63;1.93;;;;;;;;;;5030247;28;20233;-80
2022/02/25 12:39:24;;;;;;;2.87;2.57;;;;;;;;;;5029589;28;20643;-80
2022/02/25 12:41:56;;;;;;;4.97;2.53;;;;;;;;;;5029901;28;20222;-80
2022/02/25 12:44:25;;;;;;;3.23;2.63;;;;;;;;;;5030090;28;20187;-80
2022/02/25 12:46:54;;;;;;;2.60;2.40;;;;;;;;;;5029841;28;20292;-80
2022/02/25 12:49:27;;;;;;;2.97;1.83;;;;;;;;;;5029474;28;20199;-80
2022/02/25 12:51:56;;;;;;;4.07;3.07;;;;;;;;;;5030202;28;20289;-80
2022/02/25 12:54:25;;;;;;;3.27;2.33;;;;;;;;;;5029565;28;20205;-80
2022/02/25 12:56:54;;;;;;;4.43;3.37;;;;;;;;;;5030225;28;20210;-79
2022/02/25 12:59:24;;;;;;;2.97;2.30;;;;;;;;;;5029758;28;20198;-80
2022/02/25 13:01:52;;;;;;;2.83;2.63;;;;;;;;;;5029469;28;20194;-80
2022/02/25 13:04:21;;;;;;;3.83;2.47;;;;;;;;;;5029696;28;20217;-80
2022/02/25 13:06:51;;;;;;;2.63;2.43;;;;;;;;;;5029526;28;20212;-80
2022/02/25 13:09:20;;;;;;;4.97;4.33;;;;;;;;;;5029692;28;20210;-80
2022/02/25 13:11:49;;;;;;;3.73;3.43;;;;;;;;;;5029228;28;20202;-80
2022/02/25 13:14:18;;;;;;;2.90;2.70;;;;;;;;;;5029545;28;20589;-80
2022/02/25 13:17:00;;;;;;;4.33;3.23;;;;;;;;;;5029399;28;20210;-80
2022/02/25 13:19:28;;;;;;;3.20;2.50;;;;;;;;;;5029190;28;20296;-80
2022/02/25 13:22:18;;;;;;;3.07;2.53;;;;;;;;;;5029003;28;20210;-80
2022/02/25 13:24:54;;;;;;;2.70;2.50;;;;;;;;;;5029179;28;20236;-80
2022/02/25 13:27:28;;;;;;;3.57;2.50;;;;;;;;;;5029530;28;20203;-80
2022/02/25 13:29:55;;;;;;;4.20;2.60;;;;;;;;;;5028900;28;20753;-80
2022/02/25 13:32:26;;;;;;;3.13;2.80;;;;;;;;;;5029013;28;20683;-81
2022/02/25 13:34:54;;;;;;;2.20;2.00;;;;;;;;;;5028998;28;20187;-81
2022/02/25 13:37:23;;;;;;;4.17;2.33;;;;;;;;;;5029197;28;20713;-81
2022/02/25 13:39:50;;;;;;;2.23;2.13;;;;;;;;;;5028274;28;20637;-81
2022/02/25 13:42:33;;;;;;;2.53;2.33;;;;;;;;;;5028941;28;20313;-81
2022/02/25 13:45:00;;;;;;;2.70;2.50;;;;;;;;;;5029247;28;20183;-81
2022/02/25 13:53:00;;;;;;;3.73;2.67;;;;;;;;;;5039258;28;20252;-81
2022/02/25 13:55:28;;;;;;;3.23;2.93;;;;;;;;;;5028762;28;20196;-80
2022/02/25 13:57:58;;;;;;;2.73;2.50;;;;;;;;;;5029306;28;20202;-80
2022/02/25 14:00:27;;;;;;;2.17;2.07;;;;;;;;;;5028551;28;20277;-80
2022/02/25 14:02:54;;;;;;;2.87;2.60;;;;;;;;;;5028821;28;20706;-81
2022/02/25 14:05:24;;;;;;;3.90;2.50;;;;;;;;;;5028671;28;20242;-81
2022/02/25 14:07:52;;;;;;;2.30;2.10;;;;;;;;;;5028831;28;20197;-81
2022/02/25 14:10:25;;;;;;;3.67;3.30;;;;;;;;;;5028558;28;20682;-81
2022/02/25 14:12:53;;;;;;;2.87;2.60;;;;;;;;;;5029126;28;20277;-80
2022/02/25 14:15:22;;;;;;;4.33;3.23;;;;;;;;;;5028446;28;20244;-81
2022/02/25 14:17:50;;;;;;;6.30;3.20;;;;;;;;;;5028960;28;20234;-80
2022/02/25 14:20:19;;;;;;;3.13;2.83;;;;;;;;;;5028427;28;20242;-81
2022/02/25 14:22:49;;;;;;;2.70;2.30;;;;;;;;;;5028516;28;20319;-81
2022/02/25 14:25:23;;;;;;;3.00;2.70;;;;;;;;;;5028443;28;20295;-80
2022/02/25 14:28:06;;;;;;;2.63;2.43;;;;;;;;;;5028751;28;20642;-81
2022/02/25 14:30:36;;;;;;;4.70;2.90;;;;;;;;;;5027957;28;20233;-81
2022/02/25 14:33:14;;;;;;;4.50;2.37;;;;;;;;;;5028474;28;20201;-81
2022/02/25 14:35:43;;;;;;;2.30;2.10;;;;;;;;;;5028331;28;20195;-82
2022/02/25 14:38:10;;;;;;;3.30;2.80;;;;;;;;;;5028440;28;20194;-81
2022/02/25 14:40:40;;;;;;;2.57;2.10;;;;;;;;;;5028025;28;20209;-81
2022/02/25 14:43:07;;;;;;;2.53;2.30;;;;;;;;;;5028215;28;20283;-81
2022/02/25 14:45:35;;;;;;;17.27;11.53;;;;;;;;;;5028140;28;20205;-81
2022/02/25 14:48:04;;;;;;;18.63;13.33;;;;;;;;;;5028463;28;20236;-81
2022/02/25 14:50:31;;;;;;;28.87;17.77;;;;;;;;;;5028144;28;20203;-81
2022/02/25 14:52:59;;;;;;;4.63;3.77;;;;;;;;;;5030992;28;20251;-81
2022/02/25 14:55:26;;;;;;;3.90;3.40;;;;;;;;;;5031470;28;20284;-81
2022/02/25 14:57:56;;;;;;;3.00;2.70;;;;;;;;;;5031549;28;20200;-81
2022/02/25 15:00:24;;;;;;;13.07;9.63;;;;;;;;;;5031465;28;20664;-81
2022/02/25 15:02:53;;;;;;;16.10;9.87;;;;;;;;;;5033144;28;20225;-80